Time;durP1;ratioP1;P1;durP2;ratioP2;P2;SDS_P1;SDS_P2;PMS_P1;PMS_P2;Temp;Humidity;BMP_temperature;BMP_pressure;BME280_temperature;BME280_humidity;BME280_pressure;Samples;Min_cycle;Max_cycle;Signal;HPM_P1;HPM_P2
2022/06/29 00:00:39;;;;;;;7.93;6.90;;;16.20;99.90;;;;;;4990634;28;20181;-63
2022/06/29 00:03:06;;;;;;;14.07;7.70;;;16.20;99.90;;;;;;4985489;28;20260;-62
2022/06/29 00:05:32;;;;;;;8.47;7.57;;;16.30;99.90;;;;;;4981638;28;20177;-62
2022/06/29 00:07:57;;;;;;;7.97;7.10;;;16.30;99.90;;;;;;4988646;28;20431;-62
2022/06/29 00:10:24;;;;;;;6.97;6.37;;;16.30;99.90;;;;;;4989973;28;20180;-62
2022/06/29 00:12:50;;;;;;;7.97;7.20;;;16.30;99.90;;;;;;4980734;28;20236;-62
2022/06/29 00:15:17;;;;;;;8.53;7.27;;;16.30;99.90;;;;;;4985990;28;20464;-61
2022/06/29 00:17:44;;;;;;;12.67;7.63;;;16.30;99.90;;;;;;4982097;28;20442;-62
2022/06/29 00:20:10;;;;;;;9.20;6.67;;;16.40;99.90;;;;;;4987033;28;20433;-62
2022/06/29 00:22:36;;;;;;;10.10;7.03;;;16.40;99.90;;;;;;4984963;28;20598;-62
2022/06/29 00:25:03;;;;;;;9.60;7.10;;;16.40;99.90;;;;;;4989117;28;20424;-62
2022/06/29 00:27:29;;;;;;;8.50;7.70;;;16.40;99.90;;;;;;4986080;28;20892;-62
2022/06/29 00:29:54;;;;;;;10.97;7.77;;;16.40;99.90;;;;;;4987869;28;20428;-62
2022/06/29 00:32:20;;;;;;;7.90;7.20;;;16.50;99.90;;;;;;4988524;28;20628;-62
2022/06/29 00:34:45;;;;;;;8.43;7.20;;;16.40;99.90;;;;;;4987168;28;20208;-61
2022/06/29 00:37:11;;;;;;;8.47;7.57;;;16.50;99.90;;;;;;4982303;28;20176;-62
2022/06/29 00:39:37;;;;;;;10.93;7.63;;;16.40;99.90;;;;;;4970489;28;20182;-62
2022/06/29 00:42:03;;;;;;;7.10;6.50;;;16.50;99.90;;;;;;4975008;28;20228;-62
2022/06/29 00:44:29;;;;;;;11.70;6.80;;;16.50;99.90;;;;;;4988260;28;20228;-62
2022/06/29 00:46:57;;;;;;;8.40;7.47;;;16.50;99.90;;;;;;4981999;28;20448;-61
2022/06/29 00:49:26;;;;;;;7.77;7.03;;;16.50;99.90;;;;;;4989646;28;20215;-63
2022/06/29 00:52:04;;;;;;;8.40;7.33;;;16.40;99.90;;;;;;4986515;28;20459;-62
2022/06/29 00:54:36;;;;;;;7.63;6.83;;;16.50;99.90;;;;;;4981300;28;20456;-62
2022/06/29 00:57:07;;;;;;;7.67;6.87;;;16.50;99.90;;;;;;4973469;28;20483;-61
2022/06/29 00:59:40;;;;;;;7.87;7.10;;;16.50;99.90;;;;;;4981493;28;20428;-61
2022/06/29 01:02:06;;;;;;;8.23;7.43;;;16.50;99.90;;;;;;4986458;28;20456;-61
2022/06/29 01:04:31;;;;;;;9.50;7.37;;;16.50;99.90;;;;;;4980827;28;20443;-61
2022/06/29 01:06:57;;;;;;;10.43;8.17;;;16.50;99.90;;;;;;4984024;28;20448;-62
2022/06/29 01:09:23;;;;;;;8.63;7.57;;;16.50;99.90;;;;;;4989092;28;20646;-62
2022/06/29 01:11:51;;;;;;;11.20;8.17;;;16.50;99.90;;;;;;4985461;28;20716;-62
2022/06/29 01:14:17;;;;;;;10.40;7.10;;;16.50;99.90;;;;;;4986828;28;20197;-61
2022/06/29 01:16:43;;;;;;;9.73;7.50;;;16.50;99.90;;;;;;4990975;28;20482;-61
2022/06/29 01:19:08;;;;;;;11.53;7.10;;;16.50;99.90;;;;;;4993109;28;20248;-61
2022/06/29 01:21:39;;;;;;;8.40;7.47;;;16.50;99.90;;;;;;4982994;28;20300;-61
2022/06/29 01:24:05;;;;;;;8.20;7.40;;;16.40;99.90;;;;;;4986489;28;20196;-61
2022/06/29 01:26:30;;;;;;;7.70;6.97;;;16.40;99.90;;;;;;4989965;28;20507;-62
2022/06/29 01:28:56;;;;;;;13.43;7.87;;;16.40;99.90;;;;;;4992394;28;20181;-62
2022/06/29 01:31:21;;;;;;;8.37;7.40;;;16.40;99.90;;;;;;4992233;28;20209;-61
2022/06/29 01:33:48;;;;;;;10.00;7.50;;;16.30;99.90;;;;;;4990812;28;20221;-61
2022/06/29 01:36:15;;;;;;;8.90;7.73;;;16.30;99.90;;;;;;4981794;28;20562;-62
2022/06/29 01:38:41;;;;;;;8.07;7.23;;;16.30;99.90;;;;;;4995288;28;20925;-62
2022/06/29 01:41:10;;;;;;;13.03;8.60;;;16.30;99.90;;;;;;4996986;28;20555;-62
2022/06/29 01:43:36;;;;;;;9.57;8.43;;;16.30;99.90;;;;;;4987748;28;21191;-61
2022/06/29 01:46:02;;;;;;;9.80;8.13;;;16.30;99.90;;;;;;4990733;28;20801;-61
2022/06/29 01:48:28;;;;;;;9.37;8.17;;;16.40;99.90;;;;;;4993049;28;20901;-62
2022/06/29 01:50:54;;;;;;;8.83;7.93;;;16.30;99.90;;;;;;4988670;28;20197;-61
2022/06/29 01:53:19;;;;;;;13.50;8.70;;;16.30;99.90;;;;;;4982905;28;20173;-61
2022/06/29 01:55:46;;;;;;;9.43;8.53;;;16.40;99.90;;;;;;4975510;28;20461;-62
2022/06/29 01:58:12;;;;;;;9.43;8.50;;;16.40;99.90;;;;;;4980595;28;20169;-61
2022/06/29 02:00:38;;;;;;;10.47;8.30;;;16.40;99.90;;;;;;4989935;28;20424;-62
2022/06/29 02:03:04;;;;;;;11.13;8.20;;;16.30;99.90;;;;;;4978704;28;20436;-62
2022/06/29 02:05:30;;;;;;;9.77;8.70;;;16.40;99.90;;;;;;4972851;28;20678;-61
2022/06/29 02:07:55;;;;;;;10.03;9.03;;;16.40;99.90;;;;;;4990844;28;20673;-62
2022/06/29 02:10:21;;;;;;;8.73;7.83;;;16.40;99.90;;;;;;4997024;28;20666;-62
2022/06/29 02:12:46;;;;;;;9.10;8.20;;;16.40;99.90;;;;;;4978388;28;20208;-61
2022/06/29 02:15:12;;;;;;;11.30;8.53;;;16.40;99.90;;;;;;4983819;28;22095;-62
2022/06/29 02:17:38;;;;;;;8.67;7.87;;;16.40;99.90;;;;;;4982612;28;20184;-62
2022/06/29 02:20:04;;;;;;;9.63;8.43;;;16.40;99.90;;;;;;4983763;28;20181;-61
2022/06/29 02:22:30;;;;;;;8.67;7.87;;;16.30;99.90;;;;;;4984591;28;20280;-61
2022/06/29 02:24:55;;;;;;;8.90;7.90;;;16.30;99.90;;;;;;4991455;28;20519;-61
2022/06/29 02:27:21;;;;;;;9.87;8.50;;;16.30;99.90;;;;;;4988425;28;20185;-62
2022/06/29 02:29:47;;;;;;;9.40;8.17;;;16.30;99.90;;;;;;4990304;28;20565;-61
2022/06/29 02:34:57;;;;;;;12.40;8.10;;;16.30;99.90;;;;;;4989807;28;20215;-62
2022/06/29 02:37:22;;;;;;;10.30;8.30;;;16.30;99.90;;;;;;4989409;28;20432;-61
2022/06/29 02:39:48;;;;;;;8.70;7.80;;;16.30;99.90;;;;;;4992406;28;20169;-62
2022/06/29 02:42:14;;;;;;;9.50;8.50;;;16.30;99.90;;;;;;4989982;28;20251;-62
2022/06/29 02:44:41;;;;;;;9.40;8.07;;;16.30;99.90;;;;;;4981009;28;20184;-62
2022/06/29 02:47:08;;;;;;;8.87;7.97;;;16.30;99.90;;;;;;4987046;28;20507;-61
2022/06/29 02:49:34;;;;;;;8.80;7.90;;;16.20;99.90;;;;;;4991755;28;20798;-61
2022/06/29 02:52:00;;;;;;;12.37;8.20;;;16.30;99.90;;;;;;4986505;28;20452;-62
2022/06/29 02:54:26;;;;;;;13.13;8.40;;;16.30;99.90;;;;;;4985336;28;20514;-62
2022/06/29 02:56:53;;;;;;;8.17;7.43;;;16.20;99.90;;;;;;4984717;28;20531;-62
2022/06/29 02:59:20;;;;;;;8.90;7.90;;;16.20;99.90;;;;;;4991727;28;20682;-62
2022/06/29 03:01:45;;;;;;;8.60;7.10;;;16.20;99.90;;;;;;4986683;28;20539;-62
2022/06/29 03:04:11;;;;;;;9.60;8.63;;;16.20;99.90;;;;;;4989202;28;21008;-62
2022/06/29 03:06:37;;;;;;;10.70;7.80;;;16.20;99.90;;;;;;4988530;28;20185;-62
2022/06/29 03:09:02;;;;;;;9.07;8.17;;;16.10;99.90;;;;;;4997354;28;20192;-61
2022/06/29 03:11:28;;;;;;;12.63;8.03;;;16.10;99.90;;;;;;5004460;28;20204;-62
2022/06/29 03:13:54;;;;;;;7.77;6.83;;;16.10;99.90;;;;;;4985222;28;20729;-61
2022/06/29 03:16:19;;;;;;;9.00;7.70;;;16.10;99.90;;;;;;4994623;28;21956;-62
2022/06/29 03:18:45;;;;;;;7.93;7.20;;;16.00;99.90;;;;;;4986318;28;20791;-62
2022/06/29 03:21:11;;;;;;;7.90;7.20;;;16.00;99.90;;;;;;4985803;28;20285;-62
2022/06/29 03:23:37;;;;;;;8.60;7.80;;;16.00;99.90;;;;;;4988328;28;20215;-62
2022/06/29 03:26:02;;;;;;;8.60;7.80;;;16.00;99.90;;;;;;4988351;28;20240;-61
2022/06/29 03:28:28;;;;;;;8.93;7.63;;;15.90;99.90;;;;;;4985645;28;20444;-62
2022/06/29 03:30:54;;;;;;;12.37;8.20;;;15.90;99.90;;;;;;4991066;28;20262;-62
2022/06/29 03:33:19;;;;;;;9.73;8.80;;;15.90;99.90;;;;;;4990397;28;20177;-61
2022/06/29 03:35:45;;;;;;;13.60;8.40;;;15.90;99.90;;;;;;4983257;28;20236;-62
2022/06/29 03:38:11;;;;;;;10.30;8.00;;;15.90;99.90;;;;;;4982818;28;20272;-61
2022/06/29 03:40:36;;;;;;;10.43;8.30;;;15.80;99.90;;;;;;4990383;28;20185;-61
2022/06/29 03:43:02;;;;;;;9.07;8.17;;;15.80;99.90;;;;;;4987193;28;20648;-61
2022/06/29 03:45:28;;;;;;;8.70;7.80;;;15.80;99.90;;;;;;4986418;28;20177;-62
2022/06/29 03:47:53;;;;;;;12.30;8.50;;;15.80;99.90;;;;;;4980840;28;20209;-62
2022/06/29 03:50:19;;;;;;;8.90;7.63;;;15.80;99.90;;;;;;4990590;28;20220;-62
2022/06/29 03:52:45;;;;;;;8.80;7.90;;;15.80;99.90;;;;;;4978743;28;20228;-61
2022/06/29 03:55:11;;;;;;;8.80;7.90;;;15.80;99.90;;;;;;4983211;28;20745;-58
2022/06/29 03:57:36;;;;;;;9.47;7.90;;;15.70;99.90;;;;;;4987017;28;20448;-59
2022/06/29 04:00:03;;;;;;;8.70;7.80;;;15.70;99.90;;;;;;4985186;28;20173;-57
2022/06/29 04:02:29;;;;;;;11.67;8.17;;;15.70;99.90;;;;;;4984422;28;20232;-58
2022/06/29 04:04:55;;;;;;;8.60;7.70;;;15.70;99.90;;;;;;4978679;28;20476;-59
2022/06/29 04:07:21;;;;;;;8.30;7.50;;;15.70;99.90;;;;;;4985257;28;20185;-58
2022/06/29 04:09:46;;;;;;;10.03;8.97;;;15.60;99.90;;;;;;4987418;28;20622;-58
2022/06/29 04:12:12;;;;;;;8.67;7.77;;;15.60;99.90;;;;;;4985308;28;20223;-58
2022/06/29 04:14:38;;;;;;;15.40;8.40;;;15.60;99.90;;;;;;4975741;28;20221;-58
2022/06/29 04:17:04;;;;;;;9.63;8.43;;;15.60;99.90;;;;;;4980601;28;20251;-59
2022/06/29 04:19:29;;;;;;;8.93;8.03;;;15.50;99.90;;;;;;4985259;28;20881;-58
2022/06/29 04:21:55;;;;;;;10.40;8.60;;;15.50;99.90;;;;;;4981734;28;20288;-59
2022/06/29 04:24:22;;;;;;;8.90;8.00;;;15.50;99.90;;;;;;4977092;28;20209;-58
2022/06/29 04:26:47;;;;;;;9.00;8.10;;;15.50;99.90;;;;;;4976060;28;20208;-62
2022/06/29 04:29:14;;;;;;;10.43;9.00;;;15.60;99.90;;;;;;4981358;28;20946;-63
2022/06/29 04:31:40;;;;;;;14.83;8.53;;;15.60;99.90;;;;;;4975273;28;20222;-63
2022/06/29 04:34:05;;;;;;;18.67;9.00;;;15.60;99.90;;;;;;4974268;28;20479;-64
2022/06/29 04:36:31;;;;;;;9.93;8.93;;;15.70;99.90;;;;;;4982142;28;20178;-63
2022/06/29 04:38:57;;;;;;;10.73;8.50;;;15.70;99.90;;;;;;4981371;28;20233;-63
2022/06/29 04:41:23;;;;;;;8.57;7.77;;;15.80;99.90;;;;;;4982576;28;20263;-62
2022/06/29 04:43:49;;;;;;;11.10;8.50;;;15.80;99.90;;;;;;4980272;28;20177;-62
2022/06/29 04:46:21;;;;;;;8.83;7.93;;;15.80;99.90;;;;;;4977406;28;20451;-63
2022/06/29 04:48:48;;;;;;;11.90;7.73;;;15.80;99.90;;;;;;4983769;28;20432;-62
2022/06/29 04:51:15;;;;;;;9.90;8.40;;;15.90;99.90;;;;;;4980503;28;20905;-63
2022/06/29 04:53:43;;;;;;;9.43;8.53;;;15.90;99.90;;;;;;4981748;28;20436;-63
2022/06/29 04:56:08;;;;;;;13.60;8.47;;;15.90;99.90;;;;;;4986964;28;20434;-62
2022/06/29 04:58:34;;;;;;;9.37;8.47;;;15.90;99.90;;;;;;4987218;28;20424;-63
2022/06/29 05:00:59;;;;;;;10.80;8.90;;;16.00;99.90;;;;;;4982066;28;20260;-62
2022/06/29 05:03:25;;;;;;;10.33;8.40;;;16.00;99.90;;;;;;4987427;28;20227;-62
2022/06/29 05:05:51;;;;;;;12.53;9.30;;;16.00;99.90;;;;;;4987989;28;20184;-63
2022/06/29 05:08:16;;;;;;;11.20;8.47;;;16.00;99.90;;;;;;4984731;28;20185;-62
2022/06/29 05:10:42;;;;;;;10.10;8.60;;;16.00;99.90;;;;;;4985940;28;20185;-62
2022/06/29 05:13:09;;;;;;;10.83;9.00;;;16.10;99.90;;;;;;4985586;28;20877;-62
2022/06/29 05:15:35;;;;;;;13.03;8.40;;;16.20;99.90;;;;;;5007320;28;20553;-63
2022/06/29 05:18:01;;;;;;;13.33;8.10;;;16.20;99.90;;;;;;4984064;28;20478;-62
2022/06/29 05:20:27;;;;;;;8.50;7.70;;;16.20;99.90;;;;;;4988369;28;20412;-62
2022/06/29 05:22:53;;;;;;;9.73;7.93;;;16.30;99.90;;;;;;4982432;28;20219;-62
2022/06/29 05:25:19;;;;;;;10.50;8.80;;;16.40;99.90;;;;;;4981139;28;20940;-62
2022/06/29 05:27:45;;;;;;;12.87;8.60;;;16.40;99.90;;;;;;4985492;28;20669;-62
2022/06/29 05:30:12;;;;;;;10.63;8.80;;;16.50;99.90;;;;;;4982351;28;20445;-63
2022/06/29 05:32:38;;;;;;;11.20;8.67;;;16.60;99.90;;;;;;4985256;28;20468;-62
2022/06/29 05:35:04;;;;;;;11.13;8.00;;;16.60;99.90;;;;;;4987562;28;20468;-63
2022/06/29 05:37:30;;;;;;;11.77;8.27;;;16.80;99.90;;;;;;4977423;28;20600;-61
2022/06/29 05:39:56;;;;;;;9.37;8.37;;;16.90;99.90;;;;;;4978953;28;20479;-61
2022/06/29 05:42:22;;;;;;;9.93;7.77;;;17.00;99.90;;;;;;4971214;28;20559;-62
2022/06/29 05:44:47;;;;;;;9.87;8.57;;;17.10;99.90;;;;;;4970226;28;20184;-60
2022/06/29 05:47:14;;;;;;;10.47;8.07;;;17.20;99.90;;;;;;4968782;28;20188;-58
2022/06/29 05:49:40;;;;;;;13.23;8.50;;;17.30;99.90;;;;;;4970763;28;20172;-58
2022/06/29 05:52:06;;;;;;;8.50;7.60;;;17.40;99.90;;;;;;4981659;28;20452;-58
2022/06/29 05:54:31;;;;;;;11.63;8.53;;;17.50;99.90;;;;;;4976054;28;20206;-58
2022/06/29 05:56:57;;;;;;;12.77;8.50;;;17.60;99.90;;;;;;4973390;28;20181;-61
2022/06/29 05:59:23;;;;;;;8.83;7.80;;;17.70;99.90;;;;;;4979700;28;20209;-61
2022/06/29 06:01:48;;;;;;;8.70;7.80;;;17.80;99.90;;;;;;4973797;28;20192;-61
2022/06/29 06:04:14;;;;;;;8.63;7.83;;;17.90;99.90;;;;;;4977883;28;20189;-61
2022/06/29 06:06:39;;;;;;;10.93;7.70;;;18.10;99.90;;;;;;4991587;28;20205;-61
2022/06/29 06:09:05;;;;;;;8.07;7.27;;;18.20;99.90;;;;;;4986540;28;20177;-61
2022/06/29 06:11:31;;;;;;;12.63;7.60;;;18.30;99.90;;;;;;4991247;28;20201;-61
2022/06/29 06:13:56;;;;;;;9.30;7.30;;;18.30;99.90;;;;;;4982729;28;20208;-61
2022/06/29 06:16:22;;;;;;;8.90;7.60;;;18.40;99.90;;;;;;4973477;28;20166;-61
2022/06/29 06:18:47;;;;;;;9.73;8.43;;;18.40;99.90;;;;;;4975940;28;20188;-61
2022/06/29 06:21:13;;;;;;;12.00;8.47;;;18.40;99.90;;;;;;4988908;28;20200;-62
2022/06/29 06:23:39;;;;;;;11.67;9.00;;;18.50;99.90;;;;;;4988948;28;20181;-61
2022/06/29 06:26:05;;;;;;;15.43;8.63;;;18.50;99.90;;;;;;4987649;28;20174;-61
2022/06/29 06:28:30;;;;;;;11.03;8.73;;;18.50;99.90;;;;;;4972292;28;20726;-61
2022/06/29 06:30:56;;;;;;;9.20;8.30;;;18.60;99.90;;;;;;4987262;28;21197;-61
2022/06/29 06:33:22;;;;;;;9.27;8.37;;;18.60;99.90;;;;;;4991987;28;20236;-61
2022/06/29 06:35:49;;;;;;;15.67;7.87;;;18.70;99.90;;;;;;4990619;28;20193;-62
2022/06/29 06:38:15;;;;;;;10.70;8.37;;;18.70;99.90;;;;;;4989026;28;20436;-61
2022/06/29 06:43:25;;;;;;;15.80;8.30;;;18.90;99.90;;;;;;4985902;28;20436;-61
2022/06/29 06:45:50;;;;;;;10.83;9.00;;;19.00;99.90;;;;;;4971559;28;20445;-61
2022/06/29 06:48:16;;;;;;;13.10;7.70;;;19.20;99.90;;;;;;4972548;28;20172;-61
2022/06/29 06:50:42;;;;;;;11.50;7.50;;;19.30;99.90;;;;;;4989409;28;20474;-62
2022/06/29 06:53:07;;;;;;;9.93;7.27;;;19.50;99.90;;;;;;4990909;28;20620;-61
2022/06/29 06:55:33;;;;;;;9.33;6.80;;;19.60;99.90;;;;;;4990416;28;20209;-61
2022/06/29 06:57:59;;;;;;;9.53;6.90;;;19.70;99.90;;;;;;4988999;28;20239;-61
2022/06/29 07:00:25;;;;;;;11.33;6.07;;;19.80;99.90;;;;;;4981817;28;20188;-62
2022/06/29 07:02:50;;;;;;;7.40;6.47;;;19.70;99.90;;;;;;4978843;28;20256;-62
2022/06/29 07:05:17;;;;;;;7.37;5.87;;;19.90;99.90;;;;;;4989154;28;20181;-61
2022/06/29 07:07:43;;;;;;;5.20;4.70;;;19.90;99.90;;;;;;4989963;28;20260;-62
2022/06/29 07:10:09;;;;;;;6.87;5.47;;;20.10;99.90;;;;;;4991154;28;20511;-63
2022/06/29 07:12:34;;;;;;;9.20;5.50;;;20.10;99.90;;;;;;4986976;28;20207;-61
2022/06/29 07:15:00;;;;;;;8.50;4.73;;;20.20;99.90;;;;;;4989684;28;20539;-63
2022/06/29 07:17:26;;;;;;;5.43;4.93;;;20.20;99.90;;;;;;4984442;28;20186;-63
2022/06/29 07:19:51;;;;;;;9.93;5.57;;;20.30;99.90;;;;;;4971455;28;20760;-63
2022/06/29 07:22:17;;;;;;;6.37;5.13;;;20.30;99.90;;;;;;4972840;28;20221;-62
2022/06/29 07:24:43;;;;;;;5.27;4.60;;;20.40;99.90;;;;;;4990227;28;20646;-63
2022/06/29 07:27:10;;;;;;;10.30;5.27;;;20.50;99.90;;;;;;4991031;28;20200;-62
2022/06/29 07:29:36;;;;;;;6.23;5.00;;;20.50;99.90;;;;;;4988605;28;20444;-61
2022/06/29 07:32:01;;;;;;;6.83;5.40;;;20.50;99.90;;;;;;4989591;28;20467;-61
2022/06/29 07:34:27;;;;;;;6.57;4.83;;;20.50;99.90;;;;;;4988262;28;20200;-61
2022/06/29 07:36:53;;;;;;;6.30;4.80;;;20.40;99.90;;;;;;4987520;28;20174;-61
2022/06/29 07:39:18;;;;;;;5.17;4.67;;;20.50;99.90;;;;;;4990945;28;20592;-62
2022/06/29 07:41:44;;;;;;;6.03;4.93;;;20.40;99.90;;;;;;4990640;28;20208;-61
2022/06/29 07:44:09;;;;;;;7.97;4.93;;;20.40;99.90;;;;;;4988361;28;20181;-62
2022/06/29 07:46:35;;;;;;;5.53;5.03;;;20.50;99.90;;;;;;4985068;28;20181;-61
2022/06/29 07:49:01;;;;;;;5.70;4.57;;;20.50;99.90;;;;;;4988829;28;20310;-61
2022/06/29 07:51:27;;;;;;;5.77;4.60;;;20.60;99.90;;;;;;4984538;28;20727;-61
2022/06/29 07:53:52;;;;;;;5.80;5.13;;;20.70;99.90;;;;;;4988104;28;20242;-60
2022/06/29 07:56:18;;;;;;;5.23;4.63;;;20.70;99.90;;;;;;4967539;28;20181;-61
2022/06/29 07:58:44;;;;;;;6.53;5.17;;;20.70;99.90;;;;;;4988435;28;20161;-61
2022/06/29 08:01:10;;;;;;;8.10;4.73;;;20.80;99.90;;;;;;4990073;28;20678;-62
2022/06/29 08:03:35;;;;;;;7.83;5.53;;;20.90;99.90;;;;;;4981178;28;20192;-61
2022/06/29 08:06:01;;;;;;;6.47;5.57;;;21.00;99.90;;;;;;4977633;28;20181;-61
2022/06/29 08:08:28;;;;;;;5.40;4.53;;;21.10;99.90;;;;;;4988294;28;20551;-62
2022/06/29 08:10:53;;;;;;;7.60;5.37;;;21.10;99.90;;;;;;4982487;28;20196;-61
2022/06/29 08:13:19;;;;;;;6.70;4.93;;;21.10;99.90;;;;;;4987808;28;20482;-62
2022/06/29 08:15:45;;;;;;;4.93;4.37;;;21.10;99.90;;;;;;4986595;28;20204;-62
2022/06/29 08:18:15;;;;;;;8.23;4.70;;;21.00;99.90;;;;;;4984260;28;20185;-62
2022/06/29 08:20:41;;;;;;;5.53;4.60;;;21.00;99.90;;;;;;4976972;28;20838;-61
2022/06/29 08:23:07;;;;;;;4.97;4.47;;;20.90;99.90;;;;;;4985077;28;20839;-63
2022/06/29 08:25:33;;;;;;;5.60;5.03;;;20.90;99.90;;;;;;4984766;28;20531;-62
2022/06/29 08:28:01;;;;;;;7.27;4.87;;;20.80;99.90;;;;;;4984074;28;20189;-62
2022/06/29 08:30:26;;;;;;;7.33;4.63;;;20.80;99.90;;;;;;4970062;28;20178;-62
2022/06/29 08:32:52;;;;;;;6.73;4.70;;;20.80;99.90;;;;;;4985748;28;20466;-62
2022/06/29 08:35:18;;;;;;;6.60;5.20;;;20.80;99.90;;;;;;4984004;28;20208;-62
2022/06/29 08:37:44;;;;;;;5.10;4.13;;;20.80;99.90;;;;;;4987105;28;20181;-61
2022/06/29 08:40:13;;;;;;;5.13;4.30;;;20.80;99.90;;;;;;4989954;28;20207;-62
2022/06/29 08:42:40;;;;;;;5.13;4.60;;;20.80;99.90;;;;;;4980859;28;20523;-62
2022/06/29 08:45:07;;;;;;;5.17;4.60;;;20.80;99.90;;;;;;4968124;28;20413;-62
2022/06/29 08:47:33;;;;;;;5.47;4.70;;;20.80;99.90;;;;;;4982084;28;20444;-61
2022/06/29 08:49:59;;;;;;;8.37;4.70;;;20.90;99.90;;;;;;4985451;28;21012;-62
2022/06/29 08:52:28;;;;;;;8.37;4.43;;;20.90;99.90;;;;;;4986103;28;20559;-61
2022/06/29 08:54:54;;;;;;;4.83;4.33;;;21.00;99.90;;;;;;4987094;28;20755;-62
2022/06/29 08:57:21;;;;;;;3.83;3.50;;;21.00;99.90;;;;;;4987614;28;20471;-63
2022/06/29 08:59:50;;;;;;;4.70;4.30;;;21.10;99.90;;;;;;4975474;28;20178;-61
2022/06/29 09:02:16;;;;;;;5.37;4.00;;;21.10;99.90;;;;;;4972033;28;20512;-62
2022/06/29 09:04:42;;;;;;;4.70;4.23;;;21.30;99.90;;;;;;4987212;28;20416;-62
2022/06/29 09:07:07;;;;;;;6.50;3.97;;;21.40;99.90;;;;;;4988613;28;20432;-61
2022/06/29 09:10:04;;;;;;;4.33;3.93;;;21.40;99.90;;;;;;4970567;28;20666;-61
2022/06/29 09:12:31;;;;;;;6.70;4.60;;;21.50;99.90;;;;;;4982089;28;20228;-61
2022/06/29 09:14:58;;;;;;;4.17;3.77;;;21.60;99.90;;;;;;4986755;28;21019;-62
2022/06/29 09:17:24;;;;;;;5.10;4.60;;;21.70;98.50;;;;;;4982959;28;20433;-62
2022/06/29 09:19:53;;;;;;;4.40;4.00;;;21.70;98.30;;;;;;4989118;28;20423;-61
2022/06/29 09:22:19;;;;;;;8.07;4.17;;;21.80;99.20;;;;;;4987454;28;20523;-61
2022/06/29 09:24:45;;;;;;;4.70;4.30;;;21.90;99.60;;;;;;4984322;28;20470;-62
2022/06/29 09:27:11;;;;;;;4.77;4.37;;;21.90;98.10;;;;;;4976740;28;20424;-61
2022/06/29 09:29:41;;;;;;;7.20;4.80;;;22.00;98.60;;;;;;4989260;28;20230;-62
2022/06/29 09:32:28;;;;;;;6.50;4.47;;;22.00;97.30;;;;;;4989551;28;20841;-62
2022/06/29 09:34:54;;;;;;;4.97;3.93;;;22.10;98.50;;;;;;4985789;28;20511;-62
2022/06/29 09:37:23;;;;;;;4.97;4.43;;;22.10;97.80;;;;;;4988207;28;20526;-62
2022/06/29 09:39:53;;;;;;;7.57;5.27;;;22.10;97.10;;;;;;4991848;28;20174;-62
2022/06/29 09:42:27;;;;;;;5.47;4.63;;;22.10;97.00;;;;;;4985404;28;20496;-62
2022/06/29 09:44:54;;;;;;;6.07;4.50;;;22.20;96.70;;;;;;4972562;28;20412;-62
2022/06/29 09:47:21;;;;;;;6.83;4.57;;;22.20;92.60;;;;;;4986987;28;20432;-62
2022/06/29 09:49:57;;;;;;;6.33;4.10;;;22.20;93.10;;;;;;4987968;28;21070;-61
2022/06/29 09:52:24;;;;;;;10.57;4.60;;;22.20;94.30;;;;;;4992568;28;20871;-62
2022/06/29 09:54:54;;;;;;;6.63;4.23;;;22.20;92.90;;;;;;4992126;28;20508;-62
2022/06/29 09:57:23;;;;;;;4.70;3.90;;;22.10;93.20;;;;;;4990199;28;20412;-62
2022/06/29 10:02:43;;;;;;;5.57;4.30;;;22.10;96.00;;;;;;4992358;28;20478;-62
2022/06/29 10:05:11;;;;;;;4.23;3.93;;;22.00;93.90;;;;;;4986050;28;20440;-63
2022/06/29 10:07:39;;;;;;;5.43;4.20;;;22.00;94.20;;;;;;4984819;28;20767;-62
2022/06/29 10:10:08;;;;;;;4.70;4.20;;;21.90;95.20;;;;;;4993417;28;20432;-62
2022/06/29 10:15:40;;;;;;;5.27;4.10;;;21.90;95.20;;;;;;4972086;28;20515;-62
2022/06/29 10:18:44;;;;;;;5.20;4.10;;;21.90;96.10;;;;;;4972937;28;20433;-61
2022/06/29 10:21:23;;;;;;;7.93;4.43;;;21.90;96.30;;;;;;4990602;28;20200;-62
2022/06/29 10:23:54;;;;;;;5.20;4.70;;;21.90;97.50;;;;;;4990430;28;20514;-62
2022/06/29 10:26:35;;;;;;;3.93;3.53;;;22.00;96.50;;;;;;4987466;28;20812;-62
2022/06/29 10:29:09;;;;;;;5.70;4.50;;;21.90;96.80;;;;;;4970736;28;20950;-62
2022/06/29 10:31:50;;;;;;;4.77;4.30;;;22.00;96.00;;;;;;4987309;28;20460;-62
2022/06/29 10:34:31;;;;;;;6.77;4.03;;;21.90;95.10;;;;;;4982201;28;20482;-62
2022/06/29 10:37:03;;;;;;;5.00;4.03;;;21.80;95.20;;;;;;5000199;28;20432;-62
2022/06/29 10:39:43;;;;;;;3.93;3.60;;;21.70;96.50;;;;;;4988988;28;20478;-62
2022/06/29 10:45:06;;;;;;;6.30;3.63;;;21.50;96.30;;;;;;4985101;28;20432;-62
2022/06/29 10:47:32;;;;;;;7.20;3.97;;;21.30;97.30;;;;;;4990753;28;20431;-61
2022/06/29 10:50:20;;;;;;;6.63;4.50;;;21.20;98.50;;;;;;4989935;28;20436;-62
2022/06/29 10:52:47;;;;;;;5.80;4.50;;;21.10;99.90;;;;;;4992229;28;20786;-62
2022/06/29 10:55:13;;;;;;;10.20;4.40;;;21.10;99.90;;;;;;4988867;28;20570;-62
2022/06/29 10:57:44;;;;;;;6.33;4.27;;;21.00;99.90;;;;;;4985825;28;20424;-62
2022/06/29 11:00:15;;;;;;;5.40;4.90;;;20.90;99.90;;;;;;4971953;28;20805;-61
2022/06/29 11:02:42;;;;;;;6.87;4.57;;;20.90;99.90;;;;;;4972086;28;20448;-62
2022/06/29 11:05:09;;;;;;;5.63;3.87;;;20.90;99.90;;;;;;4987606;28;20439;-62
2022/06/29 11:12:01;;;;;;;4.80;4.03;;;20.90;99.90;;;;;;4977727;28;20581;-62
2022/06/29 11:13:26;;;;;;;8.97;4.00;;;20.90;99.90;;;;;;4990301;28;20443;-62
2022/06/29 11:15:57;;;;;;;4.33;3.87;;;21.00;99.90;;;;;;4980353;28;20805;-62
2022/06/29 11:18:30;;;;;;;5.00;3.77;;;21.00;99.90;;;;;;4973396;28;20437;-62
2022/06/29 11:21:03;;;;;;;4.53;4.10;;;21.10;99.90;;;;;;4990874;28;20404;-62
2022/06/29 11:23:31;;;;;;;4.20;3.80;;;21.10;99.90;;;;;;4990558;28;20432;-62
2022/06/29 11:25:58;;;;;;;4.27;3.90;;;21.20;99.90;;;;;;4978881;28;20441;-62
2022/06/29 11:28:29;;;;;;;4.53;3.50;;;21.20;99.90;;;;;;4983949;28;20509;-61
2022/06/29 11:31:05;;;;;;;15.57;4.40;;;21.20;99.90;;;;;;4991097;28;20432;-62
2022/06/29 11:33:32;;;;;;;6.80;5.07;;;21.30;99.90;;;;;;4977457;28;20433;-61
2022/06/29 11:36:06;;;;;;;5.90;4.20;;;21.40;99.90;;;;;;4987000;28;20514;-62
2022/06/29 11:38:36;;;;;;;4.20;3.80;;;21.40;99.90;;;;;;4989810;28;20442;-61
2022/06/29 11:41:13;;;;;;;4.90;3.50;;;21.40;99.90;;;;;;4990488;28;20432;-62
2022/06/29 11:43:39;;;;;;;7.10;4.40;;;21.50;98.80;;;;;;4988233;28;20556;-62
2022/06/29 11:46:04;;;;;;;7.10;3.87;;;21.50;97.90;;;;;;4970551;28;20488;-61
2022/06/29 11:48:31;;;;;;;4.23;3.80;;;21.60;96.30;;;;;;4971143;28;20177;-62
2022/06/29 11:50:58;;;;;;;5.83;3.90;;;21.60;95.10;;;;;;4971754;28;20228;-62
2022/06/29 11:53:43;;;;;;;5.27;3.57;;;21.70;95.50;;;;;;4974808;28;20437;-62
2022/06/29 11:56:12;;;;;;;5.10;4.10;;;21.80;95.70;;;;;;4970280;28;20467;-62
2022/06/29 11:58:40;;;;;;;6.60;4.30;;;22.00;96.00;;;;;;4990881;28;20459;-62
2022/06/29 12:01:14;;;;;;;6.33;4.00;;;22.10;95.90;;;;;;4984451;28;20459;-62
2022/06/29 12:03:50;;;;;;;4.00;3.30;;;22.30;97.70;;;;;;4986113;28;20442;-62
2022/06/29 12:06:19;;;;;;;4.27;3.87;;;22.40;98.30;;;;;;4983845;28;20432;-62
2022/06/29 12:08:46;;;;;;;7.70;3.83;;;22.60;95.80;;;;;;4977815;28;21020;-62
2022/06/29 12:11:12;;;;;;;4.60;3.60;;;22.80;95.30;;;;;;4988572;28;21170;-62
2022/06/29 12:13:38;;;;;;;4.47;4.07;;;22.90;92.60;;;;;;4989535;28;20530;-62
2022/06/29 12:16:04;;;;;;;6.50;4.00;;;23.20;92.40;;;;;;4984704;28;20464;-62
2022/06/29 12:18:30;;;;;;;4.83;3.37;;;23.80;91.50;;;;;;4988090;28;20180;-63
2022/06/29 12:20:56;;;;;;;5.60;3.33;;;24.30;86.90;;;;;;4987886;28;20212;-63
2022/06/29 12:23:22;;;;;;;8.07;3.57;;;24.60;71.80;;;;;;4987586;28;20437;-64
2022/06/29 12:25:48;;;;;;;8.93;4.00;;;24.70;70.20;;;;;;4987318;28;20545;-64
2022/06/29 12:28:14;;;;;;;5.73;3.60;;;24.90;70.50;;;;;;4986041;28;20436;-63
2022/06/29 12:30:39;;;;;;;4.43;4.00;;;24.90;63.10;;;;;;4988002;28;20239;-63
2022/06/29 12:33:09;;;;;;;4.60;3.13;;;24.90;62.30;;;;;;4987777;28;20228;-63
2022/06/29 12:35:38;;;;;;;5.00;3.50;;;24.80;63.60;;;;;;4983851;28;20316;-63
2022/06/29 12:38:04;;;;;;;12.23;3.67;;;24.70;65.90;;;;;;4977861;28;20455;-62
2022/06/29 12:40:30;;;;;;;4.43;3.20;;;24.60;67.30;;;;;;4978304;28;20428;-64
2022/06/29 12:42:56;;;;;;;7.60;3.50;;;24.50;66.00;;;;;;4980515;28;20284;-64
2022/06/29 12:45:23;;;;;;;5.80;3.20;;;24.40;65.10;;;;;;4979680;28;20188;-63
2022/06/29 12:47:50;;;;;;;4.73;3.60;;;24.10;63.60;;;;;;4975585;28;20185;-63
2022/06/29 12:50:16;;;;;;;4.10;3.43;;;24.00;64.40;;;;;;4977261;28;20570;-63
2022/06/29 12:52:46;;;;;;;7.60;3.70;;;23.90;63.10;;;;;;4981351;28;20483;-64
2022/06/29 12:55:16;;;;;;;4.23;3.20;;;23.80;61.80;;;;;;4976178;28;20472;-63
2022/06/29 12:57:43;;;;;;;4.53;3.57;;;23.60;62.80;;;;;;4976411;28;20770;-64
2022/06/29 13:00:10;;;;;;;5.80;4.37;;;23.50;64.10;;;;;;4977124;28;20515;-64
2022/06/29 13:02:36;;;;;;;7.20;3.83;;;23.40;65.80;;;;;;4976813;28;20452;-64